Data for 12/02/2013

Time Sea-Level Adjusted Pressure Absolute Pressure Temperature Relative Humidity Dew Point   
(mb) (inHg) (mb) (inHg) (C) (F) (%) (C) (F)
00:05 1009 29.8 838 24.75 6.3 43.4 62 -0.4 31.2
00:10 1009 29.8 838 24.75 6.2 43.2 62 -0.5 31.2
00:15 1009 29.8 838 24.75 6.3 43.3 62 -0.4 31.2
00:20 1008 29.77 838 24.75 6.2 43.2 62 -0.4 31.2
00:25 1008 29.77 838 24.75 6.3 43.3 62 -0.4 31.3
00:30 1008 29.77 838 24.75 6.3 43.3 62 -0.4 31.3
00:35 1008 29.77 837 24.72 6.5 43.6 61 -0.5 31.1
00:40 1008 29.77 837 24.72 6.5 43.8 61 -0.4 31.3
00:45 1008 29.77 837 24.72 6.6 43.8 61 -0.5 31.1
00:50 1008 29.77 837 24.72 6.7 44 60 -0.5 31
00:55 1008 29.77 837 24.72 6.8 44.2 58 -0.8 30.6
01:00 1008 29.77 837 24.72 6.9 44.5 59 -0.6 30.9
01:05 1008 29.77 837 24.72 7 44.7 58 -0.6 30.9
01:10 1008 29.77 837 24.72 7 44.6 59 -0.4 31.3
01:15 1008 29.77 837 24.72 6.9 44.4 58 -0.7 30.7
01:20 1008 29.77 837 24.72 6.9 44.5 58 -0.6 30.9
01:25 1008 29.77 837 24.72 6.9 44.4 60 -0.4 31.3
01:30 1007 29.74 837 24.72 6.9 44.4 61 -0.2 31.6
01:35 1007 29.74 837 24.72 6.9 44.4 61 -0.2 31.7
01:40 1007 29.74 837 24.72 6.9 44.4 60 -0.2 31.6
01:45 1007 29.74 836 24.69 7 44.6 59 -0.4 31.3
01:50 1007 29.74 836 24.69 7.2 45 60 -0.1 31.9
01:55 1007 29.74 836 24.69 7.1 44.7 61 0.2 32.3
02:00 1007 29.74 836 24.69 6.9 44.5 63 0.3 32.6
02:05 1007 29.74 836 24.69 6.7 44.1 64 0.5 33
02:10 1007 29.74 836 24.69 6.5 43.7 65 0.5 32.9
02:15 1007 29.74 836 24.69 6.4 43.5 66 0.5 32.9
02:20 1007 29.74 836 24.69 6.4 43.5 66 0.5 33
02:25 1007 29.74 836 24.69 6.3 43.3 66 0.4 32.7
02:30 1007 29.74 836 24.69 6.4 43.5 65 0.4 32.7
02:35 1006 29.71 836 24.69 6.4 43.6 65 0.3 32.5
02:40 1006 29.71 836 24.69 6.5 43.7 65 0.3 32.6
02:45 1006 29.71 836 24.69 6.5 43.7 64 0.1 32.2
02:50 1006 29.71 836 24.69 6.7 44 63 0.2 32.4
02:55 1006 29.71 835 24.66 6.7 44.1 62 0.1 32.1
03:00 1006 29.71 835 24.66 6.8 44.3 61 -0.1 31.8
03:05 1006 29.71 835 24.66 7.1 44.9 60 -0.2 31.7
03:10 1006 29.71 835 24.66 7.2 45 59 -0.2 31.7
03:15 1006 29.71 835 24.66 7.4 45.2 58 -0.2 31.6
03:20 1006 29.71 835 24.66 7.4 45.2 59 -0.1 31.8
03:25 1006 29.71 835 24.66 7.3 45.1 59 -0.2 31.7
03:30 1006 29.71 835 24.66 7.2 44.9 59 -0.3 31.5
03:35 1006 29.71 835 24.66 7.1 44.9 59 -0.2 31.6
03:40 1006 29.71 835 24.66 7.2 45 57 -0.6 30.9
03:45 1006 29.71 835 24.66 7.5 45.5 56 -0.8 30.6
03:50 1006 29.71 835 24.66 7.8 46 55 -0.6 30.9
03:55 1006 29.71 835 24.66 7.8 46 55 -0.6 31
04:00 1005 29.68 835 24.66 7.7 45.9 55 -0.6 30.8
04:05 1005 29.68 835 24.66 7.7 45.8 55 -0.7 30.8
04:10 1005 29.68 835 24.66 7.7 45.9 55 -0.7 30.7
04:15 1005 29.68 835 24.66 7.7 45.9 56 -0.6 31
04:20 1005 29.68 835 24.66 7.7 45.8 57 -0.3 31.5
04:25 1005 29.68 835 24.66 7.4 45.4 58 -0.3 31.4
04:30 1005 29.68 834 24.63 7.2 45 58 -0.3 31.4
04:35 1005 29.68 834 24.63 7.1 44.7 59 -0.4 31.3
04:40 1005 29.68 834 24.63 7.1 44.7 59 -0.5 31.2
04:45 1005 29.68 834 24.63 7.1 44.7 58 -0.5 31
04:50 1005 29.68 834 24.63 7 44.7 59 -0.4 31.2
04:55 1005 29.68 834 24.63 6.9 44.5 59 -0.6 30.9
05:00 1005 29.68 834 24.63 6.9 44.4 58 -0.7 30.8
05:05 1005 29.68 834 24.63 6.9 44.4 58 -0.9 30.5
05:10 1005 29.68 834 24.63 7 44.6 57 -0.8 30.5
05:15 1005 29.68 834 24.63 7 44.6 58 -0.7 30.8
05:20 1005 29.68 834 24.63 7 44.6 58 -0.7 30.8
05:25 1005 29.68 834 24.63 7 44.5 58 -0.8 30.6
05:30 1004 29.65 834 24.63 7.1 44.7 57 -0.9 30.5
05:35 1004 29.65 833 24.6 7.1 44.9 56 -1 30.2
05:40 1004 29.65 833 24.6 7.2 44.9 55 -1.2 29.9
05:45 1004 29.65 834 24.63 7.3 45.2 55 -1.2 29.8
05:50 1004 29.65 834 24.63 7.4 45.4 53 -1.5 29.3
05:55 1004 29.65 834 24.63 7.7 45.9 51 -1.8 28.8
06:00 1004 29.65 834 24.63 8 46.4 49 -2 28.3
06:05 1004 29.65 834 24.63 8.3 46.9 49 -1.8 28.7
06:10 1004 29.65 834 24.63 8.2 46.7 49 -1.8 28.8
06:15 1004 29.65 834 24.63 8.2 46.8 49 -1.9 28.6
06:20 1004 29.65 834 24.63 8.2 46.8 49 -1.9 28.6
06:25 1004 29.65 834 24.63 8.3 46.9 48 -2 28.5
06:30 1004 29.65 834 24.63 8.3 47 48 -2 28.4
06:35 1004 29.65 834 24.63 8.3 47 49 -1.8 28.7
06:40 1004 29.65 833 24.6 8.3 46.9 48 -1.9 28.5
06:45 1004 29.65 833 24.6 8.2 46.8 49 -1.8 28.7
06:50 1004 29.65 833 24.6 8.1 46.6 49 -1.8 28.7
06:55 1004 29.65 833 24.6 8.1 46.6 49 -2 28.4
07:00 1004 29.65 833 24.6 8 46.4 49 -1.9 28.6
07:05 1004 29.65 833 24.6 7.9 46.2 50 -1.9 28.6
07:10 1004 29.65 833 24.6 7.9 46.1 50 -1.9 28.5
07:15 1004 29.65 833 24.6 7.9 46.2 48 -2.3 27.9
07:20 1004 29.65 833 24.6 8.1 46.6 48 -2.1 28.3
07:25 1004 29.65 833 24.6 8.1 46.7 48 -2.1 28.2
07:30 1004 29.65 833 24.6 8.1 46.5 49 -2 28.3
07:35 1004 29.65 833 24.6 8 46.4 49 -1.9 28.5
07:40 1004 29.65 833 24.6 7.9 46.2 50 -1.8 28.7
07:45 1004 29.65 833 24.6 7.7 45.9 50 -2.1 28.3
07:50 1004 29.65 833 24.6 7.8 46.1 50 -1.9 28.6
07:55 1004 29.65 833 24.6 7.8 46 51 -1.7 29
08:00 1004 29.65 833 24.6 7.7 45.8 52 -1.6 29.1
08:05 1004 29.65 833 24.6 7.5 45.5 52 -1.8 28.8
08:10 1004 29.65 833 24.6 7.4 45.3 52 -1.7 28.9
08:15 1004 29.65 833 24.6 7.2 44.9 53 -1.7 28.9
08:20 1004 29.65 833 24.6 6.9 44.5 53 -1.9 28.5
08:25 1004 29.65 833 24.6 6.7 44.1 55 -1.8 28.8
08:30 1004 29.65 833 24.6 6.6 43.8 54 -2 28.4
08:35 1004 29.65 833 24.6 6.4 43.5 55 -2 28.3
08:40 1004 29.65 833 24.6 6.3 43.3 53 -2.6 27.4
08:45 1004 29.65 833 24.6 6.4 43.5 52 -2.7 27.1
08:50 1004 29.65 833 24.6 6.6 43.8 51 -3 26.7
08:55 1004 29.65 833 24.6 7 44.6 49 -2.9 26.8
09:00 1004 29.65 833 24.6 7.1 44.7 49 -2.8 27
09:05 1004 29.65 833 24.6 6.9 44.5 51 -2.6 27.4
09:10 1004 29.65 833 24.6 6.7 44.1 50 -2.8 26.9
09:15 1004 29.65 833 24.6 6.6 43.9 52 -2.6 27.3
09:20 1004 29.65 833 24.6 6.5 43.7 51 -2.9 26.7
09:25 1004 29.65 833 24.6 6.8 44.2 50 -3 26.6
09:30 1004 29.65 833 24.6 7 44.6 49 -2.9 26.7
09:35 1004 29.65 833 24.6 7.3 45.1 48 -2.9 26.8
09:40 1004 29.65 833 24.6 7.4 45.4 49 -2.6 27.3
09:45 1004 29.65 833 24.6 7.3 45.2 50 -2.4 27.7
09:50 1004 29.65 833 24.6 7.3 45.2 51 -2.3 27.9
09:55 1004 29.65 833 24.6 7.5 45.5 50 -2.2 28.1
10:00 1004 29.65 833 24.6 7.3 45.2 51 -2.2 28.1
10:05 1004 29.65 833 24.6 7.1 44.9 50 -2.5 27.5
10:10 1004 29.65 833 24.6 7.1 44.8 48 -3.1 26.4
10:15 1004 29.65 833 24.6 7.5 45.4 47 -3.2 26.3
10:20 1004 29.65 833 24.6 7.7 45.9 46 -3 26.6
10:25 1004 29.65 833 24.6 8.2 46.7 45 -3 26.6
10:30 1004 29.65 833 24.6 8.3 46.9 46 -2.8 27
10:35 1003 29.62 833 24.6 8.1 46.5 47 -2.5 27.5
10:40 1003 29.62 833 24.6 7.9 46.2 48 -2.4 27.7
10:45 1003 29.62 833 24.6 7.8 46 49 -2.3 27.9
10:50 1003 29.62 833 24.6 7.8 46.1 49 -2.2 28
10:55 1004 29.65 833 24.6 7.8 46 49 -2.2 28
11:00 1004 29.65 833 24.6 7.4 45.3 57 -0.6 30.9
11:05 1003 29.62 833 24.6 6 42.8 63 -0.6 30.9
11:10 1003 29.62 833 24.6 5.3 41.5 67 -0.4 31.3
11:15 1003 29.62 833 24.6 4.8 40.6 68 -0.5 31
11:20 1004 29.65 833 24.6 4.7 40.4 69 -0.4 31.3
11:25 1003 29.62 833 24.6 4.6 40.4 69 -0.5 31.2
11:30 1003 29.62 833 24.6 4.9 40.8 64 -1.2 29.8
11:35 1003 29.62 832 24.57 5.5 41.9 61 -1.4 29.5
11:40 1003 29.62 832 24.57 5.8 42.4 60 -1.3 29.7
11:45 1003 29.62 832 24.57 6 42.8 58 -1.6 29.1
11:50 1003 29.62 832 24.57 6.3 43.3 56 -1.9 28.5
11:55 1003 29.62 832 24.57 6.6 43.9 55 -1.7 28.9
12:00 1003 29.62 832 24.57 6.6 44 59 -0.7 30.7
12:05 1003 29.62 832 24.57 6.1 43 63 -0.4 31.2
12:10 1003 29.62 832 24.57 5.6 42.1 64 -0.7 30.8
12:15 1003 29.62 832 24.57 5.7 42.2 63 -0.7 30.7
12:20 1003 29.62 832 24.57 5.6 42 63 -0.8 30.5
12:25 1003 29.62 832 24.57 5.3 41.5 67 -0.3 31.4
12:30 1003 29.62 832 24.57 4.6 40.3 70 -0.4 31.2
12:35 1003 29.62 832 24.57 4.3 39.8 71 -0.5 31
12:40 1003 29.62 832 24.57 4.2 39.5 71 -0.6 31
12:45 1002 29.59 832 24.57 4.2 39.5 71 -0.6 30.8
12:50 1002 29.59 831 24.54 4.2 39.6 70 -0.7 30.7
12:55 1002 29.59 831 24.54 4.4 39.9 69 -0.8 30.5
13:00 1002 29.59 831 24.54 4.7 40.5 68 -0.7 30.7
13:05 1003 29.62 832 24.57 4.9 40.7 67 -0.7 30.8
13:10 1003 29.62 832 24.57 4.8 40.6 71 -0.1 31.9
13:15 1003 29.62 832 24.57 4.3 39.8 73 -0 31.9
13:20 1002 29.59 832 24.57 4.2 39.6 73 -0.2 31.6
13:25 1002 29.59 831 24.54 4.1 39.4 74 -0.1 31.8
13:30 1002 29.59 831 24.54 4 39.3 75 0.1 32.2
13:35 1002 29.59 831 24.54 4 39.3 72 -0.5 31.1
13:40 1002 29.59 831 24.54 4 39.1 73 -0.5 31.1
13:45 1002 29.59 831 24.54 4 39.1 73 -0.4 31.3
13:50 1002 29.59 831 24.54 4 39.3 75 -0.1 31.9
13:55 1002 29.59 831 24.54 4.1 39.3 72 -0.6 31
14:00 1003 29.62 832 24.57 3.9 39 73 -0.6 31
14:05 1002 29.59 832 24.57 3.5 38.3 78 -0.1 31.9
14:10 1002 29.59 831 24.54 2.8 37.1 81 -0.1 31.9
14:15 1002 29.59 831 24.54 2.3 36.1 85 -0 32
14:20 1002 29.59 831 24.54 1.9 35.5 86 -0.1 31.7
14:25 1002 29.59 831 24.54 1.8 35.2 88 -0 31.9
14:30 1002 29.59 832 24.57 1.7 35 88 -0 32
14:35 1003 29.62 832 24.57 1.6 34.9 88 -0.1 31.8
14:40 1003 29.62 832 24.57 1.4 34.6 89 -0.2 31.6
14:45 1003 29.62 832 24.57 1.5 34.8 89 -0.2 31.7
14:50 1002 29.59 831 24.54 1.4 34.6 89 -0.2 31.7
14:55 1002 29.59 831 24.54 1.3 34.4 90 -0.1 31.8
15:00 1002 29.59 831 24.54 1.1 33.9 92 -0.1 31.8
15:05 1002 29.59 831 24.54 1.1 34 92 -0 32
15:10 1002 29.59 831 24.54 1.2 34.1 91 -0.1 31.9
15:15 1002 29.59 831 24.54 1 33.8 92 -0.1 31.8
15:20 1003 29.62 832 24.57 0.9 33.5 93 -0.2 31.6
15:25 1003 29.62 832 24.57 0.7 33.2 93 -0.3 31.5
15:30 1003 29.62 832 24.57 0.5 33 94 -0.3 31.4
15:35 1003 29.62 832 24.57 0.4 32.8 94 -0.4 31.3
15:40 1003 29.62 832 24.57 0.4 32.7 95 -0.4 31.3
15:45 1003 29.62 832 24.57 0.3 32.5 95 -0.5 31.1
15:50 1003 29.62 832 24.57 0.2 32.4 95 -0.5 31.2
15:55 1003 29.62 832 24.57 0.2 32.4 95 -0.5 31.2
16:00 1003 29.62 832 24.57 0 32 95 -0.7 30.8
16:05 1003 29.62 832 24.57 -0.1 31.8 96 -0.8 30.6
16:10 1003 29.62 832 24.57 -0.2 31.6 96 -0.8 30.5
16:15 1003 29.62 832 24.57 -0.2 31.6 96 -0.8 30.6
16:20 1003 29.62 833 24.6 -0.1 31.7 96 -0.7 30.8
16:25 1004 29.65 833 24.6 -0.1 31.8 96 -0.6 30.8
16:30 1004 29.65 833 24.6 -0.1 31.8 96 -0.6 30.9
16:35 1004 29.65 833 24.6 -0.6 31 95 -1.2 29.8
16:40 1004 29.65 833 24.6 -1.4 29.4 95 -2.1 28.2
16:45 1004 29.65 833 24.6 -1.9 28.6 96 -2.5 27.5
16:50 1004 29.65 833 24.6 -2 28.4 96 -2.6 27.4
16:55 1004 29.65 834 24.63 -2 28.3 96 -2.6 27.3
17:00 1005 29.68 834 24.63 -2.1 28.2 96 -2.6 27.3
17:05 1005 29.68 834 24.63 -2.1 28.3 96 -2.6 27.4
17:10 1005 29.68 834 24.63 -2 28.4 96 -2.5 27.5
17:15 1005 29.68 834 24.63 -2 28.5 97 -2.4 27.6
17:20 1005 29.68 835 24.66 -2 28.5 96 -2.5 27.5
17:25 1005 29.68 835 24.66 -2.1 28.3 96 -2.6 27.3
17:30 1006 29.71 835 24.66 -2.1 28.2 96 -2.7 27.2
17:35 1005 29.68 835 24.66 -2.2 28 96 -2.7 27.1
17:40 1006 29.71 835 24.66 -2.4 27.7 96 -2.9 26.7
17:45 1005 29.68 835 24.66 -2.5 27.5 96 -3.1 26.5
17:50 1005 29.68 835 24.66 -2.7 27.2 96 -3.3 26.1
17:55 1005 29.68 834 24.63 -2.9 26.8 96 -3.5 25.8
18:00 1005 29.68 835 24.66 -3 26.5 96 -3.6 25.4
18:05 1006 29.71 835 24.66 -3.1 26.5 96 -3.7 25.4
18:10 1006 29.71 835 24.66 -3.1 26.4 96 -3.7 25.3
18:15 1006 29.71 835 24.66 -3.1 26.3 96 -3.8 25.2
18:20 1006 29.71 835 24.66 -3.3 26.1 95 -3.9 25
18:25 1006 29.71 835 24.66 -3.4 25.8 95 -4.1 24.7
18:30 1006 29.71 835 24.66 -3.5 25.6 95 -4.2 24.5
18:35 1006 29.71 835 24.66 -3.6 25.5 95 -4.3 24.3
18:40 1006 29.71 836 24.69 -3.7 25.3 95 -4.4 24.2
18:45 1006 29.71 836 24.69 -3.7 25.3 95 -4.4 24.1
18:50 1007 29.74 836 24.69 -3.8 25.2 95 -4.4 24
18:55 1007 29.74 836 24.69 -3.8 25.2 95 -4.5 24
19:00 1007 29.74 836 24.69 -3.9 25.1 95 -4.5 23.9
19:05 1007 29.74 836 24.69 -3.9 25 95 -4.6 23.8
19:10 1007 29.74 836 24.69 -4 24.9 95 -4.7 23.6
19:15 1007 29.74 836 24.69 -4 24.8 95 -4.7 23.6
19:20 1007 29.74 836 24.69 -4.1 24.6 95 -4.8 23.3
19:25 1007 29.74 837 24.72 -4.2 24.4 95 -4.9 23.1
19:30 1008 29.77 837 24.72 -4.3 24.3 95 -5 23
19:35 1008 29.77 837 24.72 -4.4 24.1 95 -5.1 22.8
19:40 1008 29.77 837 24.72 -4.6 23.8 95 -5.3 22.5
19:45 1008 29.77 837 24.72 -4.6 23.8 95 -5.3 22.5
19:50 1008 29.77 837 24.72 -4.6 23.8 95 -5.3 22.5
19:55 1008 29.77 837 24.72 -4.6 23.7 95 -5.3 22.5
20:00 1008 29.77 837 24.72 -4.6 23.7 95 -5.3 22.5
20:05 1008 29.77 837 24.72 -4.6 23.6 95 -5.4 22.3
20:10 1008 29.77 837 24.72 -4.8 23.4 94 -5.5 22
20:15 1008 29.77 837 24.72 -4.8 23.3 95 -5.6 22
20:20 1008 29.77 837 24.72 -4.8 23.4 95 -5.5 22.1
20:25 1008 29.77 837 24.72 -4.8 23.4 95 -5.5 22.1
20:30 1008 29.77 837 24.72 -4.8 23.4 95 -5.5 22.1
20:35 1008 29.77 837 24.72 -4.8 23.4 95 -5.5 22.1
20:40 1007 29.74 836 24.69 -4.8 23.3 95 -5.6 22
20:45 1008 29.77 837 24.72 -4.9 23.2 95 -5.6 21.9
20:50 1008 29.77 837 24.72 -4.9 23.2 95 -5.6 21.9
20:55 1008 29.77 837 24.72 -4.9 23.1 94 -5.7 21.7
21:00 1008 29.77 837 24.72 -5 23 94 -5.8 21.6
21:05 1008 29.77 837 24.72 -5.1 22.8 94 -6 21.2
21:10 1008 29.77 837 24.72 -5.3 22.5 94 -6.1 21.1
21:15 1008 29.77 837 24.72 -5.2 22.6 95 -6 21.2
21:20 1008 29.77 837 24.72 -5.2 22.7 95 -5.9 21.3
21:25 1008 29.77 837 24.72 -5.2 22.7 94 -5.9 21.3
21:30 1008 29.77 837 24.72 -5.1 22.7 94 -5.9 21.4
21:35 1008 29.77 837 24.72 -5.2 22.7 94 -6 21.2
21:40 1008 29.77 837 24.72 -5.2 22.7 94 -6 21.3
21:45 1008 29.77 837 24.72 -5.2 22.6 94 -6 21.2
21:50 1008 29.77 837 24.72 -5.2 22.6 94 -6 21.2
21:55 1008 29.77 837 24.72 -5.2 22.6 95 -6 21.3
22:00 1008 29.77 837 24.72 -5.2 22.6 94 -6 21.2
22:05 1008 29.77 837 24.72 -5.2 22.6 94 -6 21.2
22:10 1007 29.74 837 24.72 -5.2 22.6 94 -6.1 21.1
22:15 1008 29.77 837 24.72 -5.6 22 93 -6.6 20.1
22:20 1008 29.77 837 24.72 -6.2 20.9 91 -7.4 18.7
22:25 1008 29.77 837 24.72 -6.8 19.8 91 -8 17.6
22:30 1008 29.77 837 24.72 -7.3 18.9 91 -8.5 16.7
22:35 1008 29.77 837 24.72 -7.7 18.2 91 -8.9 16
22:40 1008 29.77 837 24.72 -8.1 17.5 91 -9.2 15.4
22:45 1008 29.77 837 24.72 -8.3 17.1 91 -9.4 15
22:50 1008 29.77 837 24.72 -8.4 16.9 92 -9.5 15
22:55 1008 29.77 837 24.72 -8.3 17 92 -9.4 15.2
23:00 1008 29.77 838 24.75 -8.3 17.1 92 -9.4 15.1
23:05 1009 29.8 838 24.75 -8.4 16.9 92 -9.5 15
23:10 1009 29.8 838 24.75 -8.5 16.7 91 -9.7 14.5
23:15 1009 29.8 838 24.75 -8.7 16.3 91 -9.9 14.1
23:20 1009 29.8 838 24.75 -8.8 16.1 91 -10 14
23:25 1009 29.8 838 24.75 -8.9 15.9 91 -10.1 13.8
23:30 1009 29.8 838 24.75 -9 15.8 91 -10.2 13.6
23:35 1009 29.8 838 24.75 -9.4 15.2 90 -10.7 12.7
23:40 1009 29.8 838 24.75 -9.7 14.6 90 -11.1 12.1
23:45 1009 29.8 838 24.75 -9.9 14.3 90 -11.2 11.8
23:50 1009 29.8 838 24.75 -10.1 13.9 89 -11.5 11.3
23:55 1009 29.8 838 24.75 -10.3 13.4 89 -11.8 10.8
24:00 1009 29.8 839 24.78 -10.5 13.2 89 -11.9 10.5